createdAt,value
2022-09-05T00:02:33.812Z,2.00
2022-09-05T00:06:04.836Z,2.30
2022-09-05T00:09:13.268Z,2.20
2022-09-05T00:12:03.864Z,2.20
2022-09-05T00:15:20.679Z,2.30
2022-09-05T00:24:21.445Z,2.60
2022-09-05T00:24:29.933Z,2.30
2022-09-05T00:26:04.261Z,2.20
2022-09-05T00:29:14.831Z,2.30
2022-09-05T00:32:34.551Z,3.20
2022-09-05T00:35:45.792Z,3.10
2022-09-05T00:38:37.006Z,2.80
2022-09-05T00:41:24.887Z,2.20
2022-09-05T00:44:14.744Z,2.10
2022-09-05T00:47:11.978Z,2.20
2022-09-05T00:50:14.868Z,2.20
2022-09-05T00:53:26.213Z,2.40
2022-09-05T00:56:52.194Z,2.20
2022-09-05T00:59:50.816Z,2.60
2022-09-05T01:03:11.918Z,2.00
2022-09-05T01:06:19.897Z,2.30
2022-09-05T01:09:13.422Z,2.20
2022-09-05T01:12:32.842Z,2.30
2022-09-05T01:15:45.604Z,2.60
2022-09-05T01:19:09.943Z,2.40
2022-09-05T01:22:44.798Z,2.50
2022-09-05T01:26:03.741Z,2.00
2022-09-05T01:29:28.718Z,2.50
2022-09-05T01:32:33.195Z,2.30
2022-09-05T01:35:28.703Z,2.10
2022-09-05T01:38:29.249Z,2.10
2022-09-05T01:41:29.620Z,2.10
2022-09-05T01:44:31.231Z,2.20
2022-09-05T01:47:42.323Z,2.50
2022-09-05T01:50:50.936Z,2.50
2022-09-05T01:54:07.543Z,1.90
2022-09-05T01:57:25.191Z,1.90
2022-09-05T02:00:23.354Z,2.10
2022-09-05T02:03:09.152Z,2.30
2022-09-05T02:06:09.880Z,2.40
2022-09-05T02:09:09.291Z,2.40
2022-09-05T02:12:04.493Z,2.30
2022-09-05T02:15:08.064Z,2.30
2022-09-05T02:18:11.529Z,1.90
2022-09-05T02:21:01.823Z,1.90
2022-09-05T02:24:03.782Z,2.00
2022-09-05T02:27:12.553Z,2.20
2022-09-05T02:30:26.556Z,2.50
2022-09-05T02:36:30.266Z,2.30
2022-09-05T02:45:03.342Z,2.20
2022-09-05T02:45:11.148Z,2.20
2022-09-05T02:46:13.161Z,2.20
2022-09-05T02:50:33.387Z,2.40
2022-09-05T02:57:23.868Z,2.30
2022-09-05T02:57:40.980Z,2.00
2022-09-05T02:59:09.169Z,2.60
2022-09-05T03:02:26.114Z,2.30
2022-09-05T03:06:11.372Z,2.10
2022-09-05T03:09:16.817Z,2.20
2022-09-05T03:12:31.654Z,2.20
2022-09-05T03:15:26.318Z,2.60
2022-09-05T03:18:43.353Z,2.80
2022-09-05T03:22:00.992Z,3.00
2022-09-05T03:25:01.859Z,2.80
2022-09-05T03:28:16.192Z,2.50
2022-09-05T03:31:22.485Z,2.40
2022-09-05T03:34:26.567Z,2.70
2022-09-05T03:37:31.723Z,2.70
2022-09-05T03:40:35.054Z,2.30
2022-09-05T03:43:51.447Z,2.50
2022-09-05T03:46:51.721Z,1.90
2022-09-05T03:53:48.330Z,2.40
2022-09-05T03:57:14.441Z,2.00
2022-09-05T03:57:23.792Z,2.60
2022-09-05T04:00:21.108Z,2.50
2022-09-05T04:08:13.435Z,2.30
2022-09-05T04:08:15.053Z,2.40
2022-09-05T04:10:26.909Z,2.50
2022-09-05T04:13:47.621Z,2.40
2022-09-05T04:16:50.654Z,2.50
2022-09-05T04:19:50.015Z,1.90
2022-09-05T04:23:13.198Z,2.30
2022-09-05T04:26:43.538Z,2.20
2022-09-05T04:29:59.538Z,2.50
2022-09-05T04:33:01.608Z,2.30
2022-09-05T04:36:33.881Z,2.20
2022-09-05T04:39:19.584Z,2.30
2022-09-05T04:42:05.771Z,2.30
2022-09-05T04:47:56.903Z,2.00
2022-09-05T04:51:31.888Z,2.40
2022-09-05T04:54:36.582Z,2.40
2022-09-05T04:57:50.420Z,2.40
2022-09-05T05:06:08.226Z,2.00
2022-09-05T05:06:14.485Z,2.50
2022-09-05T05:07:41.094Z,2.30
2022-09-05T05:16:10.834Z,1.50
2022-09-05T05:17:59.775Z,2.10
2022-09-05T05:18:15.330Z,2.10
2022-09-05T05:20:50.629Z,2.70
2022-09-05T05:23:44.146Z,2.00
2022-09-05T05:26:48.774Z,1.90
2022-09-05T05:30:02.516Z,2.00
2022-09-05T05:32:52.881Z,2.00
2022-09-05T05:35:48.403Z,1.90
2022-09-05T05:38:34.723Z,1.90
2022-09-05T05:44:17.943Z,1.50
2022-09-05T05:47:31.251Z,1.70
2022-09-05T05:50:39.950Z,1.70
2022-09-05T05:53:43.488Z,1.60
2022-09-05T05:56:41.401Z,1.40
2022-09-05T06:00:00.287Z,1.30
2022-09-05T06:03:25.077Z,1.60
2022-09-05T06:06:48.767Z,1.50
2022-09-05T06:14:48.635Z,1.40
2022-09-05T06:15:00.626Z,1.00
2022-09-05T06:16:38.869Z,1.30
2022-09-05T06:22:04.483Z,1.70
2022-09-05T06:26:58.643Z,1.40
2022-09-05T06:30:00.168Z,1.20
2022-09-05T06:33:12.488Z,1.20
2022-09-05T06:36:07.901Z,1.10
2022-09-05T06:39:11.624Z,1.30
2022-09-05T06:42:43.358Z,1.10
2022-09-05T06:46:01.845Z,1.10
2022-09-05T06:49:28.398Z,1.00
2022-09-05T06:52:28.302Z,1.20
2022-09-05T06:55:40.869Z,1.00
2022-09-05T06:58:42.249Z,1.10
2022-09-05T07:01:53.835Z,1.10
2022-09-05T07:05:23.619Z,1.10
2022-09-05T07:08:44.704Z,1.10
2022-09-05T07:11:52.540Z,1.40
2022-09-05T07:14:47.606Z,1.10
2022-09-05T07:18:09.695Z,1.40
2022-09-05T07:21:16.790Z,1.40
2022-09-05T07:24:10.178Z,1.20
2022-09-05T07:27:00.263Z,1.20
2022-09-05T07:29:53.345Z,0.90
2022-09-05T07:32:57.079Z,1.10
2022-09-05T07:35:44.290Z,0.90
2022-09-05T07:38:52.345Z,1.20
2022-09-05T07:41:43.172Z,1.20
2022-09-05T07:44:37.237Z,1.30
2022-09-05T07:47:28.400Z,1.10
2022-09-05T07:52:32.563Z,1.00
2022-09-05T07:56:50.902Z,1.10
2022-09-05T07:57:22.282Z,1.00
2022-09-05T08:00:27.127Z,1.20
2022-09-05T08:03:15.719Z,1.10
2022-09-05T08:06:09.556Z,1.10
2022-09-05T08:09:21.368Z,1.20
2022-09-05T08:12:32.929Z,2.20
2022-09-05T08:16:10.475Z,1.20
2022-09-05T08:19:14.688Z,1.40
2022-09-05T08:22:03.890Z,1.20
2022-09-05T08:25:00.094Z,0.90
2022-09-05T08:28:39.008Z,1.10
2022-09-05T08:31:52.150Z,1.30
2022-09-05T08:34:51.840Z,1.00
2022-09-05T08:37:38.464Z,1.40
2022-09-05T08:40:37.959Z,1.00
2022-09-05T08:46:36.041Z,1.10
2022-09-05T08:46:49.070Z,1.40
2022-09-05T08:50:08.962Z,1.20
2022-09-05T08:53:30.924Z,1.10
2022-09-05T08:56:20.753Z,1.00
2022-09-05T09:00:06.308Z,1.20
2022-09-05T09:03:13.322Z,1.10
2022-09-05T09:06:17.405Z,1.30
2022-09-05T09:09:24.240Z,1.10
2022-09-05T09:12:31.941Z,1.00
2022-09-05T09:15:29.314Z,1.10
2022-09-05T09:18:20.587Z,1.20
2022-09-05T09:21:29.119Z,1.20
2022-09-05T09:24:47.033Z,1.10
2022-09-05T09:28:49.043Z,1.10
2022-09-05T09:31:22.482Z,1.00
2022-09-05T09:34:14.585Z,1.40
2022-09-05T09:37:20.141Z,1.20
2022-09-05T09:41:05.551Z,1.20
2022-09-05T09:44:11.558Z,1.20
2022-09-05T09:46:58.090Z,1.00
2022-09-05T09:49:46.559Z,1.00
2022-09-05T09:52:53.887Z,1.40
2022-09-05T09:55:57.760Z,1.30
2022-09-05T09:58:55.373Z,1.10
2022-09-05T10:01:53.802Z,1.30
2022-09-05T10:10:39.520Z,0.90
2022-09-05T10:10:44.346Z,1.10
2022-09-05T10:12:06.961Z,1.20
2022-09-05T10:14:55.962Z,0.80
2022-09-05T10:18:27.147Z,1.10
2022-09-05T10:21:38.826Z,1.10
2022-09-05T10:24:46.677Z,1.80
2022-09-05T10:27:53.590Z,1.10
2022-09-05T10:32:10.318Z,1.10
2022-09-05T10:35:13.600Z,0.80
2022-09-05T10:38:10.227Z,1.00
2022-09-05T10:41:21.601Z,0.90
2022-09-05T10:44:13.898Z,1.00
2022-09-05T10:47:14.965Z,1.10
2022-09-05T10:50:35.191Z,1.00
2022-09-05T10:53:55.217Z,0.90
2022-09-05T10:56:56.475Z,1.00
2022-09-05T11:02:22.001Z,0.80
2022-09-05T11:03:45.094Z,0.70
2022-09-05T11:06:57.043Z,0.80
2022-09-05T11:09:45.382Z,1.10
2022-09-05T11:13:17.444Z,0.70
2022-09-05T11:16:24.798Z,0.80
2022-09-05T11:19:36.355Z,0.70
2022-09-05T11:22:27.276Z,1.20
2022-09-05T11:25:39.628Z,0.80
2022-09-05T11:28:57.410Z,0.70
2022-09-05T11:34:02.836Z,0.80
2022-09-05T11:39:53.972Z,0.80
2022-09-05T11:40:05.888Z,0.80
2022-09-05T11:42:14.693Z,0.80
2022-09-05T11:45:37.566Z,0.80
2022-09-05T11:48:58.687Z,0.90
2022-09-05T11:51:47.060Z,0.90
2022-09-05T11:55:00.657Z,1.50
2022-09-05T11:57:58.657Z,0.80
2022-09-05T12:01:42.067Z,1.60
2022-09-05T12:04:31.451Z,1.40
2022-09-05T12:07:43.136Z,0.90
2022-09-05T12:11:07.616Z,0.70
2022-09-05T12:14:21.232Z,0.90
2022-09-05T12:17:34.832Z,0.90
2022-09-05T12:20:54.850Z,0.70
2022-09-05T12:24:59.289Z,0.60
2022-09-05T12:27:36.296Z,1.30
2022-09-05T12:30:30.094Z,1.00
2022-09-05T12:35:52.956Z,0.70
2022-09-05T12:40:55.325Z,0.80
2022-09-05T12:41:33.332Z,0.60
2022-09-05T12:44:39.788Z,0.50
2022-09-05T12:47:16.623Z,0.60
2022-09-05T12:50:17.454Z,0.60
2022-09-05T12:53:11.302Z,1.00
2022-09-05T12:56:47.981Z,0.60
2022-09-05T13:03:04.489Z,0.90
2022-09-05T13:03:08.576Z,0.60
2022-09-05T13:06:04.649Z,0.80
2022-09-05T13:08:59.382Z,0.80
2022-09-05T13:14:58.749Z,0.70
2022-09-05T13:15:36.536Z,0.40
2022-09-05T13:18:28.976Z,0.60
2022-09-05T13:21:26.342Z,0.60
2022-09-05T13:24:28.064Z,0.50
2022-09-05T13:27:18.632Z,0.60
2022-09-05T13:32:50.017Z,0.60
2022-09-05T13:38:01.202Z,0.60
2022-09-05T13:38:04.875Z,0.70
2022-09-05T13:40:24.699Z,0.50
2022-09-05T13:43:15.658Z,0.60
2022-09-05T13:46:24.511Z,0.70
2022-09-05T13:49:32.474Z,0.50
2022-09-05T13:52:39.055Z,0.60
2022-09-05T13:55:40.115Z,0.90
2022-09-05T13:58:56.556Z,0.40
2022-09-05T14:03:29.484Z,0.50
2022-09-05T14:06:03.928Z,0.50
2022-09-05T14:09:45.022Z,0.40
2022-09-05T14:12:37.229Z,0.50
2022-09-05T14:15:29.621Z,0.90
2022-09-05T14:18:56.322Z,0.60
2022-09-05T14:21:46.008Z,0.50
2022-09-05T14:24:37.299Z,0.50
2022-09-05T14:27:30.378Z,0.50
2022-09-05T14:35:27.733Z,0.50
2022-09-05T14:37:42.126Z,0.60
2022-09-05T14:37:42.477Z,0.40
2022-09-05T14:40:29.882Z,0.50
2022-09-05T14:43:27.119Z,0.40
2022-09-05T14:46:28.444Z,0.60
2022-09-05T14:49:00.345Z,0.60
2022-09-05T14:51:43.260Z,0.40
2022-09-05T15:02:38.236Z,0.40
2022-09-05T15:02:44.276Z,0.60
2022-09-05T15:03:09.975Z,0.60
2022-09-05T15:05:46.182Z,0.60
2022-09-05T15:11:25.642Z,0.60
2022-09-05T15:12:17.000Z,0.50
2022-09-05T15:16:59.222Z,0.50
2022-09-05T15:22:38.055Z,0.50
2022-09-05T15:25:20.049Z,0.60
2022-09-05T15:27:50.767Z,0.70
2022-09-05T15:30:34.892Z,0.50
2022-09-05T15:33:26.761Z,0.50
2022-09-05T15:35:58.789Z,0.60
2022-09-05T15:38:54.453Z,0.50
2022-09-05T15:41:30.697Z,1.80
2022-09-05T15:44:09.419Z,1.00
2022-09-05T15:47:10.928Z,1.10
2022-09-05T15:49:50.716Z,0.70
2022-09-05T15:52:19.825Z,0.60
2022-09-05T15:54:51.572Z,0.50
2022-09-05T15:57:31.227Z,1.00
2022-09-05T16:00:09.845Z,0.80
2022-09-05T16:02:45.004Z,0.50
2022-09-05T16:10:28.829Z,0.70
2022-09-05T16:10:37.974Z,0.60
2022-09-05T16:14:43.580Z,0.60
2022-09-05T16:23:29.519Z,0.70
2022-09-05T16:23:34.059Z,0.50
2022-09-05T16:24:02.403Z,0.50
2022-09-05T16:26:56.522Z,0.60
2022-09-05T16:29:33.248Z,0.50
2022-09-05T16:32:10.939Z,0.60
2022-09-05T16:35:04.985Z,0.60
2022-09-05T16:37:41.497Z,0.70
2022-09-05T16:40:39.829Z,0.50
2022-09-05T16:43:25.503Z,0.70
2022-09-05T16:45:59.915Z,0.50
2022-09-05T16:48:50.165Z,0.60
2022-09-05T16:51:36.483Z,1.20
2022-09-05T16:54:14.376Z,1.00
2022-09-05T16:56:47.401Z,0.70
2022-09-05T16:59:20.643Z,0.60
2022-09-05T17:02:05.683Z,0.70
2022-09-05T17:05:04.813Z,0.70
2022-09-05T17:08:00.899Z,0.50
2022-09-05T17:10:41.857Z,0.70
2022-09-05T17:13:16.558Z,0.60
2022-09-05T17:15:52.450Z,0.80
2022-09-05T17:18:27.799Z,0.70
2022-09-05T17:21:03.402Z,0.50
2022-09-05T17:28:56.045Z,0.70
2022-09-05T17:29:24.242Z,0.60
2022-09-05T17:31:14.488Z,0.60
2022-09-05T17:32:52.238Z,0.90
2022-09-05T17:35:41.926Z,1.10
2022-09-05T17:38:48.960Z,0.70
2022-09-05T17:41:45.163Z,2.70
2022-09-05T17:44:24.517Z,1.40
2022-09-05T17:46:59.933Z,1.00
2022-09-05T17:49:48.175Z,1.00
2022-09-05T17:52:20.455Z,0.50
2022-09-05T17:54:53.152Z,0.60
2022-09-05T17:57:27.977Z,0.70
2022-09-05T18:00:11.222Z,0.60
2022-09-05T18:02:57.525Z,0.60
2022-09-05T18:05:59.539Z,0.80
2022-09-05T18:08:46.403Z,0.60
2022-09-05T18:11:27.966Z,0.70
2022-09-05T18:13:57.778Z,0.60
2022-09-05T18:16:46.946Z,0.80
2022-09-05T18:20:06.508Z,0.80
2022-09-05T18:22:43.092Z,0.70
2022-09-05T18:25:30.748Z,0.70
2022-09-05T18:28:23.231Z,0.60
2022-09-05T18:30:53.497Z,0.80
2022-09-05T18:33:55.809Z,0.70
2022-09-05T18:36:25.980Z,0.80
2022-09-05T18:39:26.171Z,0.80
2022-09-05T18:42:25.835Z,0.90
2022-09-05T18:44:59.704Z,1.10
2022-09-05T18:47:52.979Z,1.00
2022-09-05T18:50:34.486Z,1.00
2022-09-05T18:53:09.273Z,1.00
2022-09-05T18:56:13.789Z,0.90
2022-09-05T18:58:58.080Z,0.70
2022-09-05T19:01:42.361Z,1.00
2022-09-05T19:04:40.936Z,0.70
2022-09-05T19:07:22.488Z,0.90
2022-09-05T19:10:35.239Z,1.00
2022-09-05T19:13:15.616Z,1.00
2022-09-05T19:16:03.690Z,0.90
2022-09-05T19:19:16.410Z,1.20
2022-09-05T19:22:49.933Z,1.20
2022-09-05T19:24:46.870Z,1.10
2022-09-05T19:29:17.704Z,1.20
2022-09-05T19:36:54.502Z,1.40
2022-09-05T19:36:56.367Z,1.10
2022-09-05T19:37:25.475Z,1.80
2022-09-05T19:42:04.588Z,1.50
2022-09-05T19:47:49.840Z,1.10
2022-09-05T19:47:51.343Z,1.10
2022-09-05T19:48:03.994Z,1.10
2022-09-05T19:50:31.855Z,1.20
2022-09-05T19:53:06.988Z,1.30
2022-09-05T19:55:39.473Z,1.60
2022-09-05T19:58:20.502Z,1.50
2022-09-05T20:01:05.646Z,1.30
2022-09-05T20:03:41.041Z,1.20
2022-09-05T20:06:29.617Z,1.10
2022-09-05T20:09:20.402Z,1.30
2022-09-05T20:11:52.067Z,1.20
2022-09-05T20:14:27.598Z,1.60
2022-09-05T20:17:29.203Z,1.40
2022-09-05T20:20:12.807Z,1.30
2022-09-05T20:22:49.708Z,1.60
2022-09-05T20:25:36.573Z,1.60
2022-09-05T20:28:10.182Z,1.50
2022-09-05T20:30:46.371Z,1.30
2022-09-05T20:33:15.248Z,1.50
2022-09-05T20:40:14.562Z,1.70
2022-09-05T20:43:17.030Z,1.40
2022-09-05T20:44:33.372Z,1.70
2022-09-05T20:52:26.031Z,1.40
2022-09-05T20:54:15.843Z,1.50
2022-09-05T20:54:22.769Z,1.50
2022-09-05T20:56:06.252Z,1.80
2022-09-05T20:58:38.339Z,1.30
2022-09-05T21:01:23.053Z,1.50
2022-09-05T21:04:01.122Z,1.60
2022-09-05T21:06:38.113Z,1.60
2022-09-05T21:09:15.736Z,2.50
2022-09-05T21:11:59.030Z,1.50
2022-09-05T21:14:29.717Z,1.50
2022-09-05T21:17:15.169Z,1.70
2022-09-05T21:19:53.918Z,1.80
2022-09-05T21:22:43.247Z,1.50
2022-09-05T21:25:17.370Z,1.70
2022-09-05T21:28:23.005Z,1.80
2022-09-05T21:30:51.827Z,1.70
2022-09-05T21:33:31.336Z,1.70
2022-09-05T21:36:15.443Z,1.90
2022-09-05T21:38:45.033Z,1.70
2022-09-05T21:41:16.923Z,1.50
2022-09-05T21:47:34.175Z,1.80
2022-09-05T21:47:46.805Z,1.70
2022-09-05T21:49:26.751Z,1.60
2022-09-05T21:51:56.058Z,1.80
2022-09-05T21:58:13.031Z,1.30
2022-09-05T21:59:26.710Z,1.40
2022-09-05T22:00:16.521Z,2.00
2022-09-05T22:02:49.890Z,1.60
2022-09-05T22:05:20.830Z,1.60
2022-09-05T22:07:49.707Z,1.40
2022-09-05T22:10:19.620Z,1.50
2022-09-05T22:12:49.506Z,1.50
2022-09-05T22:15:28.152Z,1.30
2022-09-05T22:18:17.652Z,1.80
2022-09-05T22:21:31.945Z,1.30
2022-09-05T22:23:46.452Z,1.70
2022-09-05T22:26:17.897Z,1.50
2022-09-05T22:28:50.161Z,1.30
2022-09-05T22:31:20.184Z,1.40
2022-09-05T22:33:50.875Z,1.40
2022-09-05T22:36:20.528Z,1.40
2022-09-05T22:38:49.725Z,1.20
2022-09-05T22:41:18.751Z,1.50
2022-09-05T22:43:59.493Z,1.60
2022-09-05T22:46:30.105Z,1.60
2022-09-05T22:48:59.215Z,1.30
2022-09-05T22:51:28.004Z,1.30
2022-09-05T22:53:57.102Z,1.30
2022-09-05T22:56:35.049Z,1.30
2022-09-05T22:59:05.565Z,1.40
2022-09-05T23:01:34.363Z,1.20
2022-09-05T23:04:04.089Z,1.30
2022-09-05T23:06:32.925Z,1.20
2022-09-05T23:09:02.022Z,1.80
2022-09-05T23:11:30.896Z,1.20
2022-09-05T23:14:00.515Z,1.30
2022-09-05T23:16:30.128Z,1.40
2022-09-05T23:18:59.125Z,1.20
2022-09-05T23:21:28.373Z,1.20
2022-09-05T23:23:56.859Z,1.70
2022-09-05T23:26:26.018Z,1.40
2022-09-05T23:28:55.108Z,1.60
2022-09-05T23:31:24.014Z,1.20
2022-09-05T23:33:52.990Z,1.50
2022-09-05T23:36:22.817Z,1.20
2022-09-05T23:38:51.585Z,1.60
2022-09-05T23:41:20.131Z,1.20
2022-09-05T23:43:48.614Z,1.20
2022-09-05T23:46:17.060Z,1.60
2022-09-05T23:48:45.714Z,1.40
2022-09-05T23:51:14.878Z,1.80
2022-09-05T23:53:43.662Z,1.20
2022-09-05T23:56:13.008Z,1.20
2022-09-05T23:58:42.403Z,1.40
